sensor_id;sensor_type;location;lat;lon;timestamp;P1;durP1;ratioP1;P2;durP2;ratioP2
68763;SDS011;55754;52.038;5.566;2022-11-15T00:01:52;31.63;;;13.20;;
68763;SDS011;55754;52.038;5.566;2022-11-15T00:04:18;31.40;;;13.48;;
68763;SDS011;55754;52.038;5.566;2022-11-15T00:06:43;31.70;;;13.57;;
68763;SDS011;55754;52.038;5.566;2022-11-15T00:09:09;34.07;;;13.53;;
68763;SDS011;55754;52.038;5.566;2022-11-15T00:11:34;34.58;;;15.07;;
68763;SDS011;55754;52.038;5.566;2022-11-15T00:14:00;34.80;;;14.13;;
68763;SDS011;55754;52.038;5.566;2022-11-15T00:16:27;36.63;;;14.45;;
68763;SDS011;55754;52.038;5.566;2022-11-15T00:18:52;34.47;;;14.37;;
68763;SDS011;55754;52.038;5.566;2022-11-15T00:21:18;35.45;;;14.60;;
68763;SDS011;55754;52.038;5.566;2022-11-15T00:23:44;30.70;;;14.40;;
68763;SDS011;55754;52.038;5.566;2022-11-15T00:26:11;36.70;;;14.77;;
68763;SDS011;55754;52.038;5.566;2022-11-15T00:28:38;35.23;;;15.00;;
68763;SDS011;55754;52.038;5.566;2022-11-15T00:31:05;36.30;;;14.32;;
68763;SDS011;55754;52.038;5.566;2022-11-15T00:33:33;32.05;;;14.60;;
68763;SDS011;55754;52.038;5.566;2022-11-15T00:35:59;31.92;;;13.65;;
68763;SDS011;55754;52.038;5.566;2022-11-15T00:38:29;34.80;;;14.65;;
68763;SDS011;55754;52.038;5.566;2022-11-15T00:40:57;34.77;;;13.77;;
68763;SDS011;55754;52.038;5.566;2022-11-15T00:43:22;35.35;;;14.18;;
68763;SDS011;55754;52.038;5.566;2022-11-15T00:45:48;32.77;;;13.70;;
68763;SDS011;55754;52.038;5.566;2022-11-15T00:48:13;30.60;;;13.53;;
68763;SDS011;55754;52.038;5.566;2022-11-15T00:50:39;31.23;;;14.13;;
68763;SDS011;55754;52.038;5.566;2022-11-15T00:53:07;32.50;;;14.30;;
68763;SDS011;55754;52.038;5.566;2022-11-15T00:55:33;31.10;;;13.65;;
68763;SDS011;55754;52.038;5.566;2022-11-15T00:57:58;35.17;;;13.97;;
68763;SDS011;55754;52.038;5.566;2022-11-15T01:00:24;32.07;;;14.10;;
68763;SDS011;55754;52.038;5.566;2022-11-15T01:02:49;32.22;;;13.55;;
68763;SDS011;55754;52.038;5.566;2022-11-15T01:05:15;33.90;;;13.47;;
68763;SDS011;55754;52.038;5.566;2022-11-15T01:07:40;34.40;;;14.30;;
68763;SDS011;55754;52.038;5.566;2022-11-15T01:10:09;35.35;;;14.20;;
68763;SDS011;55754;52.038;5.566;2022-11-15T01:12:35;34.00;;;13.50;;
68763;SDS011;55754;52.038;5.566;2022-11-15T01:15:01;33.70;;;13.43;;
68763;SDS011;55754;52.038;5.566;2022-11-15T01:17:26;28.43;;;13.33;;
68763;SDS011;55754;52.038;5.566;2022-11-15T01:19:52;37.00;;;14.43;;
68763;SDS011;55754;52.038;5.566;2022-11-15T01:22:18;31.87;;;14.23;;
68763;SDS011;55754;52.038;5.566;2022-11-15T01:24:43;35.00;;;14.57;;
68763;SDS011;55754;52.038;5.566;2022-11-15T01:27:09;35.72;;;15.43;;
68763;SDS011;55754;52.038;5.566;2022-11-15T01:29:34;33.90;;;14.60;;
68763;SDS011;55754;52.038;5.566;2022-11-15T01:32:00;40.17;;;15.33;;
68763;SDS011;55754;52.038;5.566;2022-11-15T01:34:26;31.15;;;14.57;;
68763;SDS011;55754;52.038;5.566;2022-11-15T01:36:51;41.13;;;14.43;;
68763;SDS011;55754;52.038;5.566;2022-11-15T01:39:17;32.15;;;14.23;;
68763;SDS011;55754;52.038;5.566;2022-11-15T01:41:42;32.10;;;14.50;;
68763;SDS011;55754;52.038;5.566;2022-11-15T01:46:55;36.80;;;14.25;;
68763;SDS011;55754;52.038;5.566;2022-11-15T01:49:22;29.70;;;13.82;;
68763;SDS011;55754;52.038;5.566;2022-11-15T01:51:49;33.42;;;14.27;;
68763;SDS011;55754;52.038;5.566;2022-11-15T01:54:16;34.30;;;14.40;;
68763;SDS011;55754;52.038;5.566;2022-11-15T01:56:46;35.97;;;14.73;;
68763;SDS011;55754;52.038;5.566;2022-11-15T01:59:18;36.50;;;14.65;;
68763;SDS011;55754;52.038;5.566;2022-11-15T02:01:44;34.92;;;14.63;;
68763;SDS011;55754;52.038;5.566;2022-11-15T02:04:12;34.47;;;14.02;;
68763;SDS011;55754;52.038;5.566;2022-11-15T02:06:40;36.95;;;15.30;;
68763;SDS011;55754;52.038;5.566;2022-11-15T02:09:07;31.97;;;14.03;;
68763;SDS011;55754;52.038;5.566;2022-11-15T02:11:36;34.55;;;14.05;;
68763;SDS011;55754;52.038;5.566;2022-11-15T02:14:02;35.15;;;14.23;;
68763;SDS011;55754;52.038;5.566;2022-11-15T02:24:34;37.55;;;14.48;;
68763;SDS011;55754;52.038;5.566;2022-11-15T02:41:52;26.20;;;13.77;;
68763;SDS011;55754;52.038;5.566;2022-11-15T02:44:51;29.20;;;13.32;;
68763;SDS011;55754;52.038;5.566;2022-11-15T02:47:20;25.75;;;13.25;;
68763;SDS011;55754;52.038;5.566;2022-11-15T02:49:50;35.80;;;14.00;;
68763;SDS011;55754;52.038;5.566;2022-11-15T02:52:19;27.38;;;13.65;;
68763;SDS011;55754;52.038;5.566;2022-11-15T02:54:58;28.80;;;13.23;;
68763;SDS011;55754;52.038;5.566;2022-11-15T03:05:03;26.15;;;13.38;;
68763;SDS011;55754;52.038;5.566;2022-11-15T03:10:26;25.23;;;12.63;;
68763;SDS011;55754;52.038;5.566;2022-11-15T03:15:55;22.57;;;11.90;;
68763;SDS011;55754;52.038;5.566;2022-11-15T03:18:35;25.80;;;13.05;;
68763;SDS011;55754;52.038;5.566;2022-11-15T03:21:04;22.70;;;12.05;;
68763;SDS011;55754;52.038;5.566;2022-11-15T03:23:32;23.73;;;12.68;;
68763;SDS011;55754;52.038;5.566;2022-11-15T03:25:59;24.92;;;12.80;;
68763;SDS011;55754;52.038;5.566;2022-11-15T03:28:30;26.73;;;12.63;;
68763;SDS011;55754;52.038;5.566;2022-11-15T03:31:04;23.38;;;12.48;;
68763;SDS011;55754;52.038;5.566;2022-11-15T03:33:51;22.40;;;12.20;;
68763;SDS011;55754;52.038;5.566;2022-11-15T03:36:20;24.85;;;12.73;;
68763;SDS011;55754;52.038;5.566;2022-11-15T03:38:48;23.65;;;13.45;;
68763;SDS011;55754;52.038;5.566;2022-11-15T03:41:16;22.93;;;12.03;;
68763;SDS011;55754;52.038;5.566;2022-11-15T03:43:54;23.30;;;12.90;;
68763;SDS011;55754;52.038;5.566;2022-11-15T03:46:28;25.42;;;13.90;;
68763;SDS011;55754;52.038;5.566;2022-11-15T03:49:00;25.70;;;13.40;;
68763;SDS011;55754;52.038;5.566;2022-11-15T03:51:36;25.60;;;13.63;;
68763;SDS011;55754;52.038;5.566;2022-11-15T03:54:03;27.48;;;13.30;;
68763;SDS011;55754;52.038;5.566;2022-11-15T03:56:29;29.25;;;14.38;;
68763;SDS011;55754;52.038;5.566;2022-11-15T03:58:54;26.73;;;14.43;;
68763;SDS011;55754;52.038;5.566;2022-11-15T04:01:20;26.33;;;14.20;;
68763;SDS011;55754;52.038;5.566;2022-11-15T04:03:45;26.90;;;14.32;;
68763;SDS011;55754;52.038;5.566;2022-11-15T04:06:11;28.87;;;13.73;;
68763;SDS011;55754;52.038;5.566;2022-11-15T04:08:37;27.30;;;13.53;;
68763;SDS011;55754;52.038;5.566;2022-11-15T04:11:02;29.77;;;13.80;;
68763;SDS011;55754;52.038;5.566;2022-11-15T04:13:28;27.93;;;14.60;;
68763;SDS011;55754;52.038;5.566;2022-11-15T04:15:53;30.67;;;15.10;;
68763;SDS011;55754;52.038;5.566;2022-11-15T04:18:19;26.48;;;15.20;;
68763;SDS011;55754;52.038;5.566;2022-11-15T04:20:44;26.80;;;14.23;;
68763;SDS011;55754;52.038;5.566;2022-11-15T04:23:28;30.00;;;14.48;;
68763;SDS011;55754;52.038;5.566;2022-11-15T04:26:16;29.17;;;14.60;;
68763;SDS011;55754;52.038;5.566;2022-11-15T04:28:44;28.90;;;14.02;;
68763;SDS011;55754;52.038;5.566;2022-11-15T04:31:28;27.52;;;13.98;;
68763;SDS011;55754;52.038;5.566;2022-11-15T04:33:54;29.10;;;13.50;;
68763;SDS011;55754;52.038;5.566;2022-11-15T04:36:20;25.88;;;14.23;;
68763;SDS011;55754;52.038;5.566;2022-11-15T04:39:08;30.38;;;14.60;;
68763;SDS011;55754;52.038;5.566;2022-11-15T04:41:33;26.80;;;14.40;;
68763;SDS011;55754;52.038;5.566;2022-11-15T04:43:59;28.67;;;14.40;;
68763;SDS011;55754;52.038;5.566;2022-11-15T04:46:25;32.05;;;14.68;;
68763;SDS011;55754;52.038;5.566;2022-11-15T04:48:51;27.77;;;13.97;;
68763;SDS011;55754;52.038;5.566;2022-11-15T04:51:17;28.00;;;14.00;;
68763;SDS011;55754;52.038;5.566;2022-11-15T04:53:43;25.02;;;13.68;;
68763;SDS011;55754;52.038;5.566;2022-11-15T04:56:08;27.63;;;14.10;;
68763;SDS011;55754;52.038;5.566;2022-11-15T04:58:34;25.88;;;13.27;;
68763;SDS011;55754;52.038;5.566;2022-11-15T05:01:13;24.90;;;13.30;;
68763;SDS011;55754;52.038;5.566;2022-11-15T05:03:43;24.65;;;12.80;;
68763;SDS011;55754;52.038;5.566;2022-11-15T05:06:27;23.63;;;12.95;;
68763;SDS011;55754;52.038;5.566;2022-11-15T05:08:53;22.87;;;13.13;;
68763;SDS011;55754;52.038;5.566;2022-11-15T05:11:18;29.63;;;13.85;;
68763;SDS011;55754;52.038;5.566;2022-11-15T05:13:45;27.53;;;13.90;;
68763;SDS011;55754;52.038;5.566;2022-11-15T05:16:10;26.33;;;14.63;;
68763;SDS011;55754;52.038;5.566;2022-11-15T05:18:36;27.63;;;13.97;;
68763;SDS011;55754;52.038;5.566;2022-11-15T05:21:05;24.83;;;13.00;;
68763;SDS011;55754;52.038;5.566;2022-11-15T05:23:31;23.75;;;13.65;;
68763;SDS011;55754;52.038;5.566;2022-11-15T05:26:01;24.08;;;13.40;;
68763;SDS011;55754;52.038;5.566;2022-11-15T05:28:28;31.50;;;13.30;;
68763;SDS011;55754;52.038;5.566;2022-11-15T05:30:59;25.70;;;13.18;;
68763;SDS011;55754;52.038;5.566;2022-11-15T05:33:35;21.90;;;12.50;;
68763;SDS011;55754;52.038;5.566;2022-11-15T05:38:32;22.35;;;12.95;;
68763;SDS011;55754;52.038;5.566;2022-11-15T05:40:59;30.03;;;13.40;;
68763;SDS011;55754;52.038;5.566;2022-11-15T05:43:25;22.92;;;12.00;;
68763;SDS011;55754;52.038;5.566;2022-11-15T05:45:52;28.48;;;12.43;;
68763;SDS011;55754;52.038;5.566;2022-11-15T05:48:18;26.47;;;12.70;;
68763;SDS011;55754;52.038;5.566;2022-11-15T05:50:45;24.10;;;12.88;;
68763;SDS011;55754;52.038;5.566;2022-11-15T05:53:12;26.48;;;12.88;;
68763;SDS011;55754;52.038;5.566;2022-11-15T05:55:40;32.33;;;13.00;;
68763;SDS011;55754;52.038;5.566;2022-11-15T05:58:09;24.52;;;13.05;;
68763;SDS011;55754;52.038;5.566;2022-11-15T06:00:36;24.57;;;13.40;;
68763;SDS011;55754;52.038;5.566;2022-11-15T06:03:02;26.25;;;13.20;;
68763;SDS011;55754;52.038;5.566;2022-11-15T06:05:27;25.43;;;13.67;;
68763;SDS011;55754;52.038;5.566;2022-11-15T06:07:56;29.92;;;14.05;;
68763;SDS011;55754;52.038;5.566;2022-11-15T06:10:22;25.13;;;14.10;;
68763;SDS011;55754;52.038;5.566;2022-11-15T06:12:55;27.98;;;14.88;;
68763;SDS011;55754;52.038;5.566;2022-11-15T06:15:21;28.60;;;14.03;;
68763;SDS011;55754;52.038;5.566;2022-11-15T06:17:47;29.73;;;13.98;;
68763;SDS011;55754;52.038;5.566;2022-11-15T06:20:13;26.57;;;14.07;;
68763;SDS011;55754;52.038;5.566;2022-11-15T06:22:38;25.53;;;13.87;;
68763;SDS011;55754;52.038;5.566;2022-11-15T06:25:06;26.65;;;13.73;;
68763;SDS011;55754;52.038;5.566;2022-11-15T06:27:32;27.63;;;14.52;;
68763;SDS011;55754;52.038;5.566;2022-11-15T06:29:58;28.10;;;14.13;;
68763;SDS011;55754;52.038;5.566;2022-11-15T06:32:23;25.55;;;14.00;;
68763;SDS011;55754;52.038;5.566;2022-11-15T06:34:49;26.57;;;13.50;;
68763;SDS011;55754;52.038;5.566;2022-11-15T06:37:14;25.40;;;14.20;;
68763;SDS011;55754;52.038;5.566;2022-11-15T06:39:40;29.80;;;14.05;;
68763;SDS011;55754;52.038;5.566;2022-11-15T06:42:07;27.10;;;12.90;;
68763;SDS011;55754;52.038;5.566;2022-11-15T06:44:33;25.95;;;13.13;;
68763;SDS011;55754;52.038;5.566;2022-11-15T06:46:59;30.50;;;14.30;;
68763;SDS011;55754;52.038;5.566;2022-11-15T06:49:24;28.00;;;14.37;;
68763;SDS011;55754;52.038;5.566;2022-11-15T06:51:50;24.85;;;14.05;;
68763;SDS011;55754;52.038;5.566;2022-11-15T06:54:15;27.43;;;14.23;;
68763;SDS011;55754;52.038;5.566;2022-11-15T06:56:41;28.40;;;14.47;;
68763;SDS011;55754;52.038;5.566;2022-11-15T06:59:06;28.45;;;14.45;;
68763;SDS011;55754;52.038;5.566;2022-11-15T07:01:32;31.67;;;15.23;;
68763;SDS011;55754;52.038;5.566;2022-11-15T07:03:58;23.67;;;13.47;;
68763;SDS011;55754;52.038;5.566;2022-11-15T07:06:23;28.33;;;14.13;;
68763;SDS011;55754;52.038;5.566;2022-11-15T07:08:48;29.03;;;13.87;;
68763;SDS011;55754;52.038;5.566;2022-11-15T07:11:14;22.87;;;13.00;;
68763;SDS011;55754;52.038;5.566;2022-11-15T07:13:39;28.77;;;14.15;;
68763;SDS011;55754;52.038;5.566;2022-11-15T07:16:06;31.30;;;13.70;;
68763;SDS011;55754;52.038;5.566;2022-11-15T07:18:34;25.88;;;12.80;;
68763;SDS011;55754;52.038;5.566;2022-11-15T07:21:01;27.10;;;13.10;;
68763;SDS011;55754;52.038;5.566;2022-11-15T07:23:30;26.35;;;13.13;;
68763;SDS011;55754;52.038;5.566;2022-11-15T07:25:57;21.95;;;12.63;;
68763;SDS011;55754;52.038;5.566;2022-11-15T07:28:23;28.77;;;12.77;;
68763;SDS011;55754;52.038;5.566;2022-11-15T07:30:52;25.20;;;12.63;;
68763;SDS011;55754;52.038;5.566;2022-11-15T07:33:18;23.37;;;12.07;;
68763;SDS011;55754;52.038;5.566;2022-11-15T07:35:43;24.27;;;12.43;;
68763;SDS011;55754;52.038;5.566;2022-11-15T07:38:11;24.15;;;12.20;;
68763;SDS011;55754;52.038;5.566;2022-11-15T07:40:37;23.27;;;11.95;;
68763;SDS011;55754;52.038;5.566;2022-11-15T07:43:03;22.57;;;11.77;;
68763;SDS011;55754;52.038;5.566;2022-11-15T07:45:31;22.92;;;11.90;;
68763;SDS011;55754;52.038;5.566;2022-11-15T07:48:00;24.63;;;12.43;;
68763;SDS011;55754;52.038;5.566;2022-11-15T07:50:26;21.67;;;11.20;;
68763;SDS011;55754;52.038;5.566;2022-11-15T07:52:55;21.48;;;12.15;;
68763;SDS011;55754;52.038;5.566;2022-11-15T07:55:22;21.48;;;11.90;;
68763;SDS011;55754;52.038;5.566;2022-11-15T07:57:48;20.30;;;12.02;;
68763;SDS011;55754;52.038;5.566;2022-11-15T08:00:14;21.70;;;11.60;;
68763;SDS011;55754;52.038;5.566;2022-11-15T08:02:40;19.75;;;11.48;;
68763;SDS011;55754;52.038;5.566;2022-11-15T08:05:06;26.38;;;11.88;;
68763;SDS011;55754;52.038;5.566;2022-11-15T08:07:31;22.17;;;12.10;;
68763;SDS011;55754;52.038;5.566;2022-11-15T08:09:57;22.38;;;11.25;;
68763;SDS011;55754;52.038;5.566;2022-11-15T08:12:23;20.55;;;11.07;;
68763;SDS011;55754;52.038;5.566;2022-11-15T08:14:49;25.33;;;11.70;;
68763;SDS011;55754;52.038;5.566;2022-11-15T08:17:15;20.20;;;11.45;;
68763;SDS011;55754;52.038;5.566;2022-11-15T08:19:40;23.93;;;11.27;;
68763;SDS011;55754;52.038;5.566;2022-11-15T08:22:06;22.23;;;11.50;;
68763;SDS011;55754;52.038;5.566;2022-11-15T08:24:32;22.88;;;11.48;;
68763;SDS011;55754;52.038;5.566;2022-11-15T08:26:57;24.17;;;12.50;;
68763;SDS011;55754;52.038;5.566;2022-11-15T08:29:23;22.97;;;11.73;;
68763;SDS011;55754;52.038;5.566;2022-11-15T08:31:54;22.20;;;11.63;;
68763;SDS011;55754;52.038;5.566;2022-11-15T08:34:20;23.02;;;11.60;;
68763;SDS011;55754;52.038;5.566;2022-11-15T08:36:51;22.35;;;11.15;;
68763;SDS011;55754;52.038;5.566;2022-11-15T08:39:17;21.57;;;11.37;;
68763;SDS011;55754;52.038;5.566;2022-11-15T08:41:42;23.50;;;11.73;;
68763;SDS011;55754;52.038;5.566;2022-11-15T08:44:09;21.10;;;10.60;;
68763;SDS011;55754;52.038;5.566;2022-11-15T08:46:35;20.85;;;10.73;;
68763;SDS011;55754;52.038;5.566;2022-11-15T08:49:03;19.52;;;10.60;;
68763;SDS011;55754;52.038;5.566;2022-11-15T08:51:29;20.57;;;10.50;;
68763;SDS011;55754;52.038;5.566;2022-11-15T08:53:54;21.03;;;10.07;;
68763;SDS011;55754;52.038;5.566;2022-11-15T08:56:20;18.50;;;9.90;;
68763;SDS011;55754;52.038;5.566;2022-11-15T08:58:45;20.20;;;8.87;;
68763;SDS011;55754;52.038;5.566;2022-11-15T09:01:16;18.30;;;9.35;;
68763;SDS011;55754;52.038;5.566;2022-11-15T09:03:44;15.88;;;8.77;;
68763;SDS011;55754;52.038;5.566;2022-11-15T09:06:10;18.50;;;8.93;;
68763;SDS011;55754;52.038;5.566;2022-11-15T09:08:35;15.03;;;8.20;;
68763;SDS011;55754;52.038;5.566;2022-11-15T09:11:04;17.73;;;8.93;;
68763;SDS011;55754;52.038;5.566;2022-11-15T09:13:34;16.42;;;8.55;;
68763;SDS011;55754;52.038;5.566;2022-11-15T09:16:02;19.17;;;9.10;;
68763;SDS011;55754;52.038;5.566;2022-11-15T09:18:28;15.95;;;8.88;;
68763;SDS011;55754;52.038;5.566;2022-11-15T09:20:55;16.50;;;8.70;;
68763;SDS011;55754;52.038;5.566;2022-11-15T09:23:21;14.40;;;8.80;;
68763;SDS011;55754;52.038;5.566;2022-11-15T09:25:47;16.53;;;8.77;;
68763;SDS011;55754;52.038;5.566;2022-11-15T09:28:13;17.00;;;8.63;;
68763;SDS011;55754;52.038;5.566;2022-11-15T09:30:41;18.53;;;8.67;;
68763;SDS011;55754;52.038;5.566;2022-11-15T09:33:07;17.00;;;9.15;;
68763;SDS011;55754;52.038;5.566;2022-11-15T09:35:34;20.37;;;9.20;;
68763;SDS011;55754;52.038;5.566;2022-11-15T09:37:59;19.25;;;9.18;;
68763;SDS011;55754;52.038;5.566;2022-11-15T09:40:25;15.00;;;8.73;;
68763;SDS011;55754;52.038;5.566;2022-11-15T09:48:48;14.57;;;8.13;;
68763;SDS011;55754;52.038;5.566;2022-11-15T09:51:27;15.13;;;8.70;;
68763;SDS011;55754;52.038;5.566;2022-11-15T09:56:35;12.43;;;7.03;;
68763;SDS011;55754;52.038;5.566;2022-11-15T10:02:08;12.18;;;7.03;;
68763;SDS011;55754;52.038;5.566;2022-11-15T10:04:56;13.13;;;6.17;;
68763;SDS011;55754;52.038;5.566;2022-11-15T10:10:00;12.15;;;6.25;;
68763;SDS011;55754;52.038;5.566;2022-11-15T10:12:51;13.95;;;5.80;;
68763;SDS011;55754;52.038;5.566;2022-11-15T10:15:18;11.38;;;6.00;;
68763;SDS011;55754;52.038;5.566;2022-11-15T10:20:29;10.88;;;5.00;;
68763;SDS011;55754;52.038;5.566;2022-11-15T10:22:56;11.05;;;4.30;;
68763;SDS011;55754;52.038;5.566;2022-11-15T10:27:53;15.48;;;4.03;;
68763;SDS011;55754;52.038;5.566;2022-11-15T10:30:47;7.47;;;3.10;;
68763;SDS011;55754;52.038;5.566;2022-11-15T10:33:36;8.77;;;3.42;;
68763;SDS011;55754;52.038;5.566;2022-11-15T10:38:33;9.98;;;4.13;;
68763;SDS011;55754;52.038;5.566;2022-11-15T10:41:57;5.95;;;3.10;;
68763;SDS011;55754;52.038;5.566;2022-11-15T10:44:11;7.40;;;3.30;;
68763;SDS011;55754;52.038;5.566;2022-11-15T10:46:44;7.20;;;3.20;;
68763;SDS011;55754;52.038;5.566;2022-11-15T10:49:30;9.02;;;3.40;;
68763;SDS011;55754;52.038;5.566;2022-11-15T10:52:01;9.15;;;3.40;;
68763;SDS011;55754;52.038;5.566;2022-11-15T10:57:27;7.47;;;3.23;;
68763;SDS011;55754;52.038;5.566;2022-11-15T10:59:59;7.90;;;3.20;;
68763;SDS011;55754;52.038;5.566;2022-11-15T11:02:35;8.15;;;3.10;;
68763;SDS011;55754;52.038;5.566;2022-11-15T11:05:07;6.97;;;2.88;;
68763;SDS011;55754;52.038;5.566;2022-11-15T11:07:55;7.07;;;3.10;;
68763;SDS011;55754;52.038;5.566;2022-11-15T11:10:23;7.97;;;3.00;;
68763;SDS011;55754;52.038;5.566;2022-11-15T11:12:49;7.05;;;2.83;;
68763;SDS011;55754;52.038;5.566;2022-11-15T11:15:15;9.07;;;3.30;;
68763;SDS011;55754;52.038;5.566;2022-11-15T11:25:42;7.70;;;2.70;;
68763;SDS011;55754;52.038;5.566;2022-11-15T11:31:09;7.53;;;2.63;;
68763;SDS011;55754;52.038;5.566;2022-11-15T11:36:50;8.32;;;2.60;;
68763;SDS011;55754;52.038;5.566;2022-11-15T11:39:47;5.68;;;2.00;;
68763;SDS011;55754;52.038;5.566;2022-11-15T11:45:14;6.57;;;2.20;;
68763;SDS011;55754;52.038;5.566;2022-11-15T11:48:03;6.30;;;2.38;;
68763;SDS011;55754;52.038;5.566;2022-11-15T11:50:43;5.28;;;2.05;;
68763;SDS011;55754;52.038;5.566;2022-11-15T11:53:12;5.38;;;2.10;;
68763;SDS011;55754;52.038;5.566;2022-11-15T11:55:51;9.10;;;2.30;;
68763;SDS011;55754;52.038;5.566;2022-11-15T12:03:42;7.53;;;1.70;;
68763;SDS011;55754;52.038;5.566;2022-11-15T12:06:17;5.47;;;1.63;;
68763;SDS011;55754;52.038;5.566;2022-11-15T12:08:53;6.38;;;1.80;;
68763;SDS011;55754;52.038;5.566;2022-11-15T12:14:00;5.88;;;1.80;;
68763;SDS011;55754;52.038;5.566;2022-11-15T12:16:29;7.78;;;1.80;;
68763;SDS011;55754;52.038;5.566;2022-11-15T12:19:02;7.20;;;1.70;;
68763;SDS011;55754;52.038;5.566;2022-11-15T12:23:58;7.33;;;1.77;;
68763;SDS011;55754;52.038;5.566;2022-11-15T12:26:31;4.50;;;1.55;;
68763;SDS011;55754;52.038;5.566;2022-11-15T12:29:09;6.38;;;1.98;;
68763;SDS011;55754;52.038;5.566;2022-11-15T12:31:47;7.97;;;1.80;;
68763;SDS011;55754;52.038;5.566;2022-11-15T12:36:54;6.33;;;2.17;;
68763;SDS011;55754;52.038;5.566;2022-11-15T12:39:20;6.47;;;1.75;;
68763;SDS011;55754;52.038;5.566;2022-11-15T13:02:29;8.15;;;2.13;;
68763;SDS011;55754;52.038;5.566;2022-11-15T13:13:01;5.50;;;1.90;;
68763;SDS011;55754;52.038;5.566;2022-11-15T13:15:37;10.20;;;2.13;;
68763;SDS011;55754;52.038;5.566;2022-11-15T13:20:57;5.70;;;1.67;;
68763;SDS011;55754;52.038;5.566;2022-11-15T13:23:23;5.20;;;1.53;;
68763;SDS011;55754;52.038;5.566;2022-11-15T13:28:37;7.22;;;1.42;;
68763;SDS011;55754;52.038;5.566;2022-11-15T13:33:55;7.47;;;1.53;;
68763;SDS011;55754;52.038;5.566;2022-11-15T13:36:24;9.70;;;1.90;;
68763;SDS011;55754;52.038;5.566;2022-11-15T13:38:54;7.03;;;1.50;;
68763;SDS011;55754;52.038;5.566;2022-11-15T13:41:23;6.32;;;1.33;;
68763;SDS011;55754;52.038;5.566;2022-11-15T13:43:51;7.20;;;1.48;;
68763;SDS011;55754;52.038;5.566;2022-11-15T13:46:22;7.37;;;1.60;;
68763;SDS011;55754;52.038;5.566;2022-11-15T13:48:57;6.30;;;1.60;;
68763;SDS011;55754;52.038;5.566;2022-11-15T13:56:39;7.55;;;1.95;;
68763;SDS011;55754;52.038;5.566;2022-11-15T14:01:54;14.20;;;3.45;;
68763;SDS011;55754;52.038;5.566;2022-11-15T14:04:22;5.45;;;1.50;;
68763;SDS011;55754;52.038;5.566;2022-11-15T14:06:51;5.65;;;1.65;;
68763;SDS011;55754;52.038;5.566;2022-11-15T14:12:01;5.70;;;1.70;;
68763;SDS011;55754;52.038;5.566;2022-11-15T14:14:49;8.75;;;1.60;;
68763;SDS011;55754;52.038;5.566;2022-11-15T14:17:32;8.55;;;1.63;;
68763;SDS011;55754;52.038;5.566;2022-11-15T14:20:02;5.90;;;1.50;;
68763;SDS011;55754;52.038;5.566;2022-11-15T14:22:50;8.15;;;1.55;;
68763;SDS011;55754;52.038;5.566;2022-11-15T14:25:21;7.17;;;1.97;;
68763;SDS011;55754;52.038;5.566;2022-11-15T14:30:40;7.63;;;1.75;;
68763;SDS011;55754;52.038;5.566;2022-11-15T14:33:20;7.35;;;1.90;;
68763;SDS011;55754;52.038;5.566;2022-11-15T14:35:50;7.80;;;1.77;;
68763;SDS011;55754;52.038;5.566;2022-11-15T14:38:17;5.97;;;1.60;;
68763;SDS011;55754;52.038;5.566;2022-11-15T14:40:43;6.82;;;1.60;;
68763;SDS011;55754;52.038;5.566;2022-11-15T14:43:10;6.72;;;1.70;;
68763;SDS011;55754;52.038;5.566;2022-11-15T14:45:36;7.05;;;1.88;;
68763;SDS011;55754;52.038;5.566;2022-11-15T14:48:02;5.40;;;1.67;;
68763;SDS011;55754;52.038;5.566;2022-11-15T14:50:28;6.93;;;1.60;;
68763;SDS011;55754;52.038;5.566;2022-11-15T14:52:54;10.18;;;2.38;;
68763;SDS011;55754;52.038;5.566;2022-11-15T14:55:27;5.97;;;1.77;;
68763;SDS011;55754;52.038;5.566;2022-11-15T14:57:56;6.55;;;1.60;;
68763;SDS011;55754;52.038;5.566;2022-11-15T15:00:21;8.93;;;1.60;;
68763;SDS011;55754;52.038;5.566;2022-11-15T15:02:47;6.20;;;1.40;;
68763;SDS011;55754;52.038;5.566;2022-11-15T15:08:10;4.27;;;1.40;;
68763;SDS011;55754;52.038;5.566;2022-11-15T15:10:36;3.60;;;1.20;;
68763;SDS011;55754;52.038;5.566;2022-11-15T15:13:04;4.45;;;1.40;;
68763;SDS011;55754;52.038;5.566;2022-11-15T15:15:34;7.30;;;1.70;;
68763;SDS011;55754;52.038;5.566;2022-11-15T15:18:02;6.07;;;1.73;;
68763;SDS011;55754;52.038;5.566;2022-11-15T15:20:29;11.27;;;1.80;;
68763;SDS011;55754;52.038;5.566;2022-11-15T15:22:56;4.47;;;1.50;;
68763;SDS011;55754;52.038;5.566;2022-11-15T15:25:28;6.05;;;1.50;;
68763;SDS011;55754;52.038;5.566;2022-11-15T15:27:57;7.77;;;1.50;;
68763;SDS011;55754;52.038;5.566;2022-11-15T15:30:22;5.13;;;1.50;;
68763;SDS011;55754;52.038;5.566;2022-11-15T15:32:49;5.22;;;1.50;;
68763;SDS011;55754;52.038;5.566;2022-11-15T15:35:15;4.50;;;1.60;;
68763;SDS011;55754;52.038;5.566;2022-11-15T15:37:42;7.75;;;2.03;;
68763;SDS011;55754;52.038;5.566;2022-11-15T15:40:19;9.43;;;2.35;;
68763;SDS011;55754;52.038;5.566;2022-11-15T15:42:46;7.13;;;1.90;;
68763;SDS011;55754;52.038;5.566;2022-11-15T15:45:15;6.33;;;1.63;;
68763;SDS011;55754;52.038;5.566;2022-11-15T15:47:42;6.40;;;1.70;;
68763;SDS011;55754;52.038;5.566;2022-11-15T15:52:57;7.03;;;1.70;;
68763;SDS011;55754;52.038;5.566;2022-11-15T15:55:28;6.35;;;1.50;;
68763;SDS011;55754;52.038;5.566;2022-11-15T15:58:04;6.50;;;1.80;;
68763;SDS011;55754;52.038;5.566;2022-11-15T16:00:31;10.25;;;1.90;;
68763;SDS011;55754;52.038;5.566;2022-11-15T16:02:59;6.60;;;1.60;;
68763;SDS011;55754;52.038;5.566;2022-11-15T16:05:25;5.13;;;1.50;;
68763;SDS011;55754;52.038;5.566;2022-11-15T16:07:50;9.40;;;1.90;;
68763;SDS011;55754;52.038;5.566;2022-11-15T16:10:18;7.83;;;1.73;;
68763;SDS011;55754;52.038;5.566;2022-11-15T16:12:51;5.43;;;1.73;;
68763;SDS011;55754;52.038;5.566;2022-11-15T16:15:18;8.93;;;1.58;;
68763;SDS011;55754;52.038;5.566;2022-11-15T16:17:47;7.03;;;1.50;;
68763;SDS011;55754;52.038;5.566;2022-11-15T16:20:38;5.82;;;1.55;;
68763;SDS011;55754;52.038;5.566;2022-11-15T16:23:07;5.50;;;1.50;;
68763;SDS011;55754;52.038;5.566;2022-11-15T16:25:58;5.90;;;1.67;;
68763;SDS011;55754;52.038;5.566;2022-11-15T16:28:26;6.18;;;1.80;;
68763;SDS011;55754;52.038;5.566;2022-11-15T16:31:01;6.00;;;1.70;;
68763;SDS011;55754;52.038;5.566;2022-11-15T16:33:28;6.40;;;1.60;;
68763;SDS011;55754;52.038;5.566;2022-11-15T16:35:54;5.50;;;1.73;;
68763;SDS011;55754;52.038;5.566;2022-11-15T16:38:20;8.27;;;1.70;;
68763;SDS011;55754;52.038;5.566;2022-11-15T16:40:45;5.00;;;1.47;;
68763;SDS011;55754;52.038;5.566;2022-11-15T16:43:11;8.02;;;1.80;;
68763;SDS011;55754;52.038;5.566;2022-11-15T16:45:36;6.20;;;1.90;;
68763;SDS011;55754;52.038;5.566;2022-11-15T16:48:03;6.88;;;2.20;;
68763;SDS011;55754;52.038;5.566;2022-11-15T16:50:29;5.95;;;1.73;;
68763;SDS011;55754;52.038;5.566;2022-11-15T16:53:03;10.47;;;1.60;;
68763;SDS011;55754;52.038;5.566;2022-11-15T16:55:29;7.28;;;1.70;;
68763;SDS011;55754;52.038;5.566;2022-11-15T16:57:55;6.37;;;2.20;;
68763;SDS011;55754;52.038;5.566;2022-11-15T17:00:25;7.40;;;2.13;;
68763;SDS011;55754;52.038;5.566;2022-11-15T17:02:51;5.10;;;2.00;;
68763;SDS011;55754;52.038;5.566;2022-11-15T17:05:18;16.60;;;4.80;;
68763;SDS011;55754;52.038;5.566;2022-11-15T17:07:47;18.17;;;4.43;;
68763;SDS011;55754;52.038;5.566;2022-11-15T17:10:14;8.57;;;2.40;;
68763;SDS011;55754;52.038;5.566;2022-11-15T17:12:40;7.28;;;2.20;;
68763;SDS011;55754;52.038;5.566;2022-11-15T17:15:06;8.20;;;2.63;;